METAR Data
IDs: Format: Raw Decoded Include TAF

Data at: 0950 UTC 13 Aug 2022

PTPN 130850Z 06003KT 15SM BKN018TCU BKN130 OVC300 27/25 A2983 RMK TCU OHD FIRST